Time;durP1;ratioP1;P1;durP2;ratioP2;P2;SDS_P1;SDS_P2;PMS_P1;PMS_P2;Temp;Humidity;BMP_temperature;BMP_pressure;BME280_temperature;BME280_humidity;BME280_pressure;Samples;Min_cycle;Max_cycle;Signal;HPM_P1;HPM_P2
2021/11/20 00:01:24;;;;;;;15.70;13.13;;;7.60;99.90;;;;;;4999683;28;20286;-88
2021/11/20 00:03:50;;;;;;;15.50;13.87;;;7.80;99.90;;;;;;4971925;28;20224;-87
2021/11/20 00:06:28;;;;;;;13.70;12.20;;;7.70;99.90;;;;;;5012229;28;20189;-87
2021/11/20 00:08:55;;;;;;;16.87;13.23;;;7.70;99.90;;;;;;5001510;28;20221;-87
2021/11/20 00:11:23;;;;;;;14.87;13.27;;;7.60;99.90;;;;;;4992071;28;20194;-87
2021/11/20 00:13:50;;;;;;;14.33;12.83;;;7.70;99.90;;;;;;4983922;28;20193;-88
2021/11/20 00:16:20;;;;;;;13.70;12.30;;;7.80;99.90;;;;;;4992197;28;20248;-88
2021/11/20 00:18:46;;;;;;;13.33;12.03;;;7.80;99.90;;;;;;5007445;28;20213;-88
2021/11/20 00:21:19;;;;;;;17.93;14.43;;;7.80;99.90;;;;;;5003308;28;20247;-88
2021/11/20 00:23:51;;;;;;;15.97;14.13;;;7.80;99.90;;;;;;5007251;28;20217;-88
2021/11/20 00:26:21;;;;;;;17.53;13.83;;;7.60;99.90;;;;;;4986205;28;20641;-88
2021/11/20 00:29:04;;;;;;;16.37;14.50;;;7.50;99.90;;;;;;5005888;28;20214;-88
2021/11/20 00:31:39;;;;;;;15.40;13.90;;;7.50;99.90;;;;;;5004911;28;20201;-88
2021/11/20 00:34:11;;;;;;;14.13;12.70;;;7.60;99.90;;;;;;4993542;28;20193;-89
2021/11/20 00:36:38;;;;;;;16.23;12.90;;;7.60;99.90;;;;;;5002787;28;20194;-89
2021/11/20 00:39:07;;;;;;;14.77;13.23;;;7.70;99.90;;;;;;5000287;28;20336;-88
2021/11/20 00:41:33;;;;;;;15.37;13.43;;;7.90;99.90;;;;;;4989870;28;20244;-88
2021/11/20 00:43:59;;;;;;;13.90;12.50;;;7.90;99.90;;;;;;5003569;28;20283;-89
2021/11/20 00:46:28;;;;;;;17.27;14.30;;;7.90;99.90;;;;;;5003366;28;20643;-88
2021/11/20 00:48:55;;;;;;;15.57;14.07;;;8.00;99.90;;;;;;5001669;28;20813;-89
2021/11/20 00:51:24;;;;;;;16.00;14.13;;;8.00;99.90;;;;;;5002329;28;20231;-89
2021/11/20 00:53:50;;;;;;;16.53;14.50;;;8.00;99.90;;;;;;5000851;28;20198;-89
2021/11/20 00:56:18;;;;;;;15.97;14.23;;;7.90;99.90;;;;;;5000815;28;20701;-89
2021/11/20 00:58:44;;;;;;;18.57;16.67;;;7.60;99.90;;;;;;5005858;28;20638;-88
2021/11/20 01:01:15;;;;;;;18.73;15.93;;;7.50;99.90;;;;;;5005505;28;20202;-89
2021/11/20 01:03:41;;;;;;;18.87;16.90;;;7.30;99.90;;;;;;5007943;28;20213;-88
2021/11/20 01:06:07;;;;;;;19.63;17.47;;;7.30;99.90;;;;;;4991294;28;20266;-89
2021/11/20 01:08:39;;;;;;;19.13;16.27;;;7.30;99.90;;;;;;5001646;28;20210;-88
2021/11/20 01:11:12;;;;;;;21.07;16.27;;;7.20;99.90;;;;;;4985416;28;20273;-88
2021/11/20 01:13:38;;;;;;;18.30;16.30;;;7.40;99.90;;;;;;5002320;28;20197;-88
2021/11/20 01:16:07;;;;;;;16.73;14.80;;;7.50;99.90;;;;;;4999043;28;20199;-88
2021/11/20 01:18:33;;;;;;;17.10;14.97;;;7.70;99.90;;;;;;5005417;28;20217;-89
2021/11/20 01:21:00;;;;;;;17.43;15.63;;;7.70;99.90;;;;;;5004960;28;20205;-88
2021/11/20 01:23:30;;;;;;;17.60;15.77;;;7.70;99.90;;;;;;5000465;28;20249;-89
2021/11/20 01:25:55;;;;;;;22.80;15.90;;;7.50;99.90;;;;;;5006768;28;20189;-88
2021/11/20 01:28:24;;;;;;;18.43;15.63;;;7.50;99.90;;;;;;4987780;28;20222;-88
2021/11/20 01:30:50;;;;;;;17.27;15.37;;;7.60;99.90;;;;;;4990850;28;20197;-87
2021/11/20 01:33:17;;;;;;;18.37;15.27;;;7.50;99.90;;;;;;5004867;28;20209;-86
2021/11/20 01:35:43;;;;;;;18.40;15.03;;;7.70;99.90;;;;;;5007016;28;20193;-89
2021/11/20 01:38:09;;;;;;;16.97;14.47;;;7.90;99.90;;;;;;4995637;28;20291;-88
2021/11/20 01:40:38;;;;;;;18.37;15.13;;;7.90;99.90;;;;;;5001151;28;20202;-88
2021/11/20 01:43:05;;;;;;;16.10;14.40;;;7.70;99.90;;;;;;5008830;28;20246;-88
2021/11/20 01:45:53;;;;;;;19.73;15.73;;;7.70;99.90;;;;;;5001961;28;20252;-88
2021/11/20 01:48:43;;;;;;;16.50;14.77;;;7.70;99.90;;;;;;5008684;28;20701;-88
2021/11/20 01:51:30;;;;;;;15.57;13.70;;;7.90;99.90;;;;;;5006658;28;20277;-88
2021/11/20 01:54:09;;;;;;;15.67;13.00;;;7.70;99.90;;;;;;5008689;28;20300;-88
2021/11/20 01:56:54;;;;;;;16.27;14.57;;;7.60;99.90;;;;;;5009679;28;20694;-88
2021/11/20 01:59:36;;;;;;;16.80;15.03;;;7.50;99.90;;;;;;5002833;28;20213;-88
2021/11/20 02:02:05;;;;;;;16.53;14.67;;;7.60;99.90;;;;;;5008859;28;20532;-88
2021/11/20 02:04:45;;;;;;;15.43;13.73;;;7.60;99.90;;;;;;5006338;28;20216;-88
2021/11/20 02:07:30;;;;;;;16.33;13.80;;;7.70;99.90;;;;;;5003877;28;20261;-87
2021/11/20 02:10:03;;;;;;;15.97;14.37;;;7.80;99.90;;;;;;5004792;28;20225;-88
2021/11/20 02:12:35;;;;;;;17.43;14.73;;;7.80;99.90;;;;;;5001203;28;20197;-88
2021/11/20 02:15:05;;;;;;;17.00;14.57;;;7.60;99.90;;;;;;5008356;28;20645;-88
2021/11/20 02:17:36;;;;;;;18.07;16.17;;;7.60;99.90;;;;;;5004689;28;20192;-88
2021/11/20 02:20:29;;;;;;;19.00;16.53;;;7.50;99.90;;;;;;4989640;28;20598;-88
2021/11/20 02:22:55;;;;;;;16.43;14.73;;;7.50;99.90;;;;;;4963129;28;20237;-88
2021/11/20 02:25:21;;;;;;;20.13;16.80;;;7.60;99.90;;;;;;5004538;28;20562;-88
2021/11/20 02:27:52;;;;;;;18.53;16.30;;;7.50;99.90;;;;;;5010247;28;20827;-87
2021/11/20 02:30:37;;;;;;;19.23;15.27;;;7.60;99.90;;;;;;5005734;28;20232;-88
2021/11/20 02:33:15;;;;;;;19.37;16.47;;;7.70;99.90;;;;;;5008970;28;20201;-88
2021/11/20 02:35:49;;;;;;;18.97;16.47;;;7.70;99.90;;;;;;4992275;28;20197;-88
2021/11/20 02:38:37;;;;;;;18.13;16.27;;;7.50;99.90;;;;;;5003556;28;20947;-87
2021/11/20 02:41:04;;;;;;;17.80;15.77;;;7.50;99.90;;;;;;5007200;28;20205;-88
2021/11/20 02:43:34;;;;;;;17.80;15.77;;;7.60;99.90;;;;;;5004296;28;20218;-88
2021/11/20 02:46:00;;;;;;;15.60;14.00;;;7.80;99.90;;;;;;5003191;28;20229;-89
2021/11/20 02:48:26;;;;;;;17.73;15.60;;;7.80;99.90;;;;;;5005003;28;20224;-88
2021/11/20 02:51:07;;;;;;;17.03;15.23;;;7.80;99.90;;;;;;5005950;28;20198;-89
2021/11/20 02:53:36;;;;;;;17.30;14.80;;;7.90;99.90;;;;;;5004769;28;20201;-88
2021/11/20 02:56:06;;;;;;;15.97;14.37;;;8.00;99.90;;;;;;5008156;28;20201;-88
2021/11/20 02:58:32;;;;;;;17.00;14.53;;;8.00;99.90;;;;;;5004237;28;20229;-88
2021/11/20 03:01:17;;;;;;;17.33;14.20;;;8.00;99.90;;;;;;4982787;28;20198;-88
2021/11/20 03:03:43;;;;;;;14.30;12.63;;;8.00;99.90;;;;;;5003320;28;20218;-89
2021/11/20 03:06:10;;;;;;;16.30;14.60;;;8.00;99.90;;;;;;5001969;28;20189;-88
2021/11/20 03:08:35;;;;;;;16.53;14.73;;;8.00;99.90;;;;;;4990308;28;20751;-89
2021/11/20 03:11:02;;;;;;;15.07;13.40;;;8.00;99.90;;;;;;5003214;28;20181;-89
2021/11/20 03:13:29;;;;;;;15.77;13.23;;;8.00;99.90;;;;;;5003225;28;20189;-89
2021/11/20 03:15:54;;;;;;;16.87;15.10;;;8.10;99.90;;;;;;5003811;28;20225;-88
2021/11/20 03:18:20;;;;;;;17.33;15.47;;;8.10;99.90;;;;;;5011808;28;20219;-88
2021/11/20 03:20:47;;;;;;;16.77;15.17;;;8.00;99.90;;;;;;5021329;28;20241;-88
2021/11/20 03:23:21;;;;;;;17.83;15.60;;;7.80;99.90;;;;;;5002068;28;20205;-88
2021/11/20 03:25:47;;;;;;;18.60;15.53;;;7.60;99.90;;;;;;5002710;28;20201;-88
2021/11/20 03:28:13;;;;;;;18.97;16.43;;;7.60;99.90;;;;;;5007068;28;20276;-88
2021/11/20 03:30:39;;;;;;;16.73;15.03;;;7.60;99.90;;;;;;5002315;28;20193;-88
2021/11/20 03:33:05;;;;;;;18.40;16.40;;;7.60;99.90;;;;;;4999510;28;20218;-89
2021/11/20 03:35:31;;;;;;;18.23;15.73;;;7.50;99.90;;;;;;5005399;28;20228;-89
2021/11/20 03:37:57;;;;;;;17.27;15.13;;;7.50;99.90;;;;;;4991046;28;20279;-88
2021/11/20 03:40:23;;;;;;;17.00;15.30;;;7.40;99.90;;;;;;5000972;28;20196;-88
2021/11/20 03:42:50;;;;;;;16.53;14.17;;;7.50;99.90;;;;;;5003264;28;20225;-89
2021/11/20 03:45:18;;;;;;;18.10;14.13;;;7.50;99.90;;;;;;5000216;28;20693;-89
2021/11/20 03:47:44;;;;;;;16.57;14.73;;;7.70;99.90;;;;;;4991153;28;20265;-88
2021/11/20 03:50:11;;;;;;;16.07;14.47;;;7.80;99.90;;;;;;5000881;28;20233;-88
2021/11/20 03:52:37;;;;;;;18.27;15.97;;;7.80;99.90;;;;;;5000855;28;20206;-88
2021/11/20 03:55:05;;;;;;;16.17;14.47;;;7.70;99.90;;;;;;4999851;28;20198;-89
2021/11/20 03:57:31;;;;;;;15.37;13.70;;;7.60;99.90;;;;;;5000969;28;20194;-88
2021/11/20 03:59:58;;;;;;;14.40;13.00;;;7.60;99.90;;;;;;5007104;28;20287;-89
2021/11/20 04:02:23;;;;;;;15.07;13.57;;;7.70;99.90;;;;;;5002177;28;20215;-88
2021/11/20 04:04:49;;;;;;;14.43;12.93;;;7.70;99.90;;;;;;4990145;28;20221;-89
2021/11/20 04:07:15;;;;;;;17.17;14.27;;;7.80;99.90;;;;;;5005870;28;20212;-88
2021/11/20 04:09:41;;;;;;;15.63;13.80;;;7.80;99.90;;;;;;5003273;28;20272;-89
2021/11/20 04:12:08;;;;;;;15.97;14.30;;;7.80;99.90;;;;;;5007497;28;20198;-88
2021/11/20 04:14:34;;;;;;;16.07;14.37;;;7.70;99.90;;;;;;5001802;28;20315;-89
2021/11/20 04:17:00;;;;;;;17.20;14.83;;;7.60;99.90;;;;;;5004807;28;20296;-88
2021/11/20 04:19:26;;;;;;;17.03;14.53;;;7.50;99.90;;;;;;4984445;28;20222;-88
2021/11/20 04:21:52;;;;;;;16.83;15.07;;;7.40;99.90;;;;;;4999957;28;20200;-88
2021/11/20 04:24:19;;;;;;;14.70;13.10;;;7.40;99.90;;;;;;5004945;28;20206;-89
2021/11/20 04:26:45;;;;;;;16.13;14.20;;;7.50;99.90;;;;;;4989833;28;20202;-88
2021/11/20 04:29:11;;;;;;;15.87;12.83;;;7.50;99.90;;;;;;5006970;28;20351;-89
2021/11/20 04:31:38;;;;;;;15.03;13.53;;;7.60;99.90;;;;;;5000219;28;20198;-88
2021/11/20 04:34:04;;;;;;;15.67;14.00;;;7.70;99.90;;;;;;5000804;28;20193;-89
2021/11/20 04:36:30;;;;;;;18.77;15.07;;;7.70;99.90;;;;;;5002289;28;20270;-88
2021/11/20 04:38:57;;;;;;;16.87;14.47;;;7.60;99.90;;;;;;4999642;28;20679;-88
2021/11/20 04:41:23;;;;;;;16.30;14.60;;;7.60;99.90;;;;;;5003716;28;20208;-88
2021/11/20 04:43:51;;;;;;;15.83;14.23;;;7.50;99.90;;;;;;5002125;28;20207;-89
2021/11/20 04:46:19;;;;;;;15.03;13.43;;;7.40;99.90;;;;;;5005334;28;20300;-88
2021/11/20 04:48:45;;;;;;;15.80;14.17;;;7.50;99.90;;;;;;5003160;28;20232;-88
2021/11/20 04:51:12;;;;;;;15.63;13.97;;;7.50;99.90;;;;;;5003102;28;20190;-89
2021/11/20 04:53:41;;;;;;;16.47;14.83;;;7.40;99.90;;;;;;5000880;28;20212;-88
2021/11/20 04:56:11;;;;;;;16.37;14.37;;;7.30;99.90;;;;;;5001104;28;20285;-88
2021/11/20 04:58:37;;;;;;;13.10;11.73;;;7.40;99.90;;;;;;5004502;28;20213;-88
2021/11/20 05:01:05;;;;;;;12.83;11.50;;;7.50;99.90;;;;;;4999033;28;20193;-89
2021/11/20 05:03:31;;;;;;;15.80;14.17;;;7.60;99.90;;;;;;5004967;28;20222;-89
2021/11/20 05:05:58;;;;;;;17.17;13.33;;;7.60;99.90;;;;;;4987178;28;20292;-88
2021/11/20 05:08:25;;;;;;;18.67;14.13;;;7.50;99.90;;;;;;5000735;28;20213;-88
2021/11/20 05:10:52;;;;;;;13.77;12.37;;;7.40;99.90;;;;;;4993111;28;20235;-89
2021/11/20 05:13:20;;;;;;;15.60;13.90;;;7.40;99.90;;;;;;5008540;28;20190;-89
2021/11/20 05:15:48;;;;;;;17.07;14.20;;;7.30;99.90;;;;;;5005645;28;20205;-88
2021/11/20 05:18:14;;;;;;;16.47;14.73;;;7.20;99.90;;;;;;5007255;28;20312;-88
2021/11/20 05:20:41;;;;;;;15.63;14.10;;;7.10;99.90;;;;;;4999838;28;20218;-88
2021/11/20 05:23:07;;;;;;;17.43;14.10;;;7.00;99.90;;;;;;5014181;28;20809;-88
2021/11/20 05:25:33;;;;;;;14.97;13.37;;;7.00;99.90;;;;;;5010730;28;22233;-88
2021/11/20 05:28:00;;;;;;;15.93;14.17;;;7.00;99.90;;;;;;5016467;28;20190;-88
2021/11/20 05:30:30;;;;;;;14.97;13.43;;;7.00;99.90;;;;;;5015385;28;20617;-88
2021/11/20 05:32:59;;;;;;;16.77;14.13;;;6.90;99.90;;;;;;5001317;28;20198;-88
2021/11/20 05:35:27;;;;;;;15.30;13.53;;;6.70;99.90;;;;;;5008718;28;20202;-88
2021/11/20 05:37:53;;;;;;;15.43;13.77;;;6.70;99.90;;;;;;5002458;28;20189;-88
2021/11/20 05:40:20;;;;;;;13.27;11.87;;;6.60;99.90;;;;;;5017792;28;20257;-88
2021/11/20 05:42:50;;;;;;;14.13;12.50;;;6.60;99.90;;;;;;5015285;28;20239;-88
2021/11/20 05:45:19;;;;;;;13.70;12.17;;;6.60;99.90;;;;;;5015302;28;20316;-88
2021/11/20 05:47:47;;;;;;;13.37;11.63;;;6.60;99.90;;;;;;5015367;28;20197;-88
2021/11/20 05:50:14;;;;;;;13.60;11.73;;;6.60;99.90;;;;;;5006161;28;20278;-88
2021/11/20 05:52:39;;;;;;;13.03;10.77;;;6.50;99.90;;;;;;5015508;28;20177;-88
2021/11/20 05:55:06;;;;;;;12.27;11.07;;;6.50;99.90;;;;;;5016826;28;20767;-88
2021/11/20 05:57:33;;;;;;;14.20;11.13;;;6.40;99.90;;;;;;5002661;28;20251;-88
2021/11/20 05:59:58;;;;;;;11.17;10.07;;;6.40;99.90;;;;;;5003834;28;20205;-88
2021/11/20 06:02:24;;;;;;;12.10;10.33;;;6.60;99.90;;;;;;5000217;28;20186;-88
2021/11/20 06:04:50;;;;;;;10.83;9.73;;;6.70;99.90;;;;;;4977743;28;20217;-88
2021/11/20 06:07:16;;;;;;;11.90;9.33;;;6.80;99.90;;;;;;4992081;28;20247;-88
2021/11/20 06:09:43;;;;;;;10.90;9.80;;;6.90;99.90;;;;;;4996752;28;20217;-89
2021/11/20 06:12:10;;;;;;;10.80;9.33;;;7.00;99.90;;;;;;5015227;28;20186;-88
2021/11/20 06:14:36;;;;;;;10.63;9.53;;;7.00;99.90;;;;;;5014313;28;20247;-89
2021/11/20 06:17:03;;;;;;;10.37;9.10;;;7.00;99.90;;;;;;5003777;28;20632;-88
2021/11/20 06:19:29;;;;;;;10.20;9.20;;;7.00;99.90;;;;;;5016140;28;20217;-89
2021/11/20 06:21:54;;;;;;;10.13;9.13;;;7.10;99.90;;;;;;4998383;28;20186;-88
2021/11/20 06:24:21;;;;;;;11.00;9.90;;;7.10;99.90;;;;;;5000919;28;20202;-88
2021/11/20 06:26:47;;;;;;;9.43;8.40;;;7.10;99.90;;;;;;5010958;28;20706;-88
2021/11/20 06:29:14;;;;;;;11.27;10.17;;;7.20;99.90;;;;;;5015236;28;20567;-88
2021/11/20 06:31:40;;;;;;;10.03;9.03;;;7.20;99.40;;;;;;4992192;28;20867;-88
2021/11/20 06:34:06;;;;;;;9.97;8.97;;;7.20;99.20;;;;;;5016297;28;20201;-88
2021/11/20 06:36:32;;;;;;;11.03;9.07;;;7.20;98.90;;;;;;5017779;28;20666;-87
2021/11/20 06:38:58;;;;;;;11.67;9.50;;;7.20;98.50;;;;;;5019501;28;20219;-88
2021/11/20 06:41:25;;;;;;;9.57;8.37;;;7.20;98.60;;;;;;5015497;28;20328;-88
2021/11/20 06:43:51;;;;;;;10.70;9.70;;;7.10;99.20;;;;;;5013427;28;20225;-88
2021/11/20 06:46:18;;;;;;;12.37;9.17;;;7.20;98.40;;;;;;4997243;28;20697;-88
2021/11/20 06:48:45;;;;;;;11.13;9.93;;;7.10;98.60;;;;;;5014722;28;20206;-88
2021/11/20 06:51:12;;;;;;;11.03;9.60;;;7.00;99.10;;;;;;5020398;28;20194;-88
2021/11/20 06:53:39;;;;;;;11.13;9.87;;;7.20;99.30;;;;;;5015790;28;20194;-88
2021/11/20 06:56:06;;;;;;;9.93;9.03;;;7.20;98.90;;;;;;5020718;28;20193;-88
2021/11/20 07:01:10;;;;;;;13.23;11.83;;;7.10;99.00;;;;;;5015643;28;20206;-88
2021/11/20 07:04:01;;;;;;;14.40;12.10;;;7.10;99.90;;;;;;4998838;28;20217;-88
2021/11/20 07:06:50;;;;;;;17.47;12.43;;;6.90;99.90;;;;;;4996298;28;20232;-88
2021/11/20 07:09:17;;;;;;;14.37;12.17;;;6.80;99.90;;;;;;5018074;28;20242;-87
2021/11/20 07:11:43;;;;;;;14.33;11.90;;;6.70;99.90;;;;;;4999856;28;20197;-88
2021/11/20 07:14:09;;;;;;;13.60;11.97;;;6.70;99.90;;;;;;5011518;28;20229;-87
2021/11/20 07:16:35;;;;;;;16.50;14.70;;;6.90;99.90;;;;;;4999846;28;20197;-88
2021/11/20 07:19:02;;;;;;;16.60;13.77;;;6.80;99.90;;;;;;5015007;28;20274;-88
2021/11/20 07:21:28;;;;;;;18.93;15.47;;;6.90;99.90;;;;;;5020109;28;20587;-88
2021/11/20 07:23:57;;;;;;;14.07;12.53;;;6.90;99.90;;;;;;5004050;28;20217;-87
2021/11/20 07:26:24;;;;;;;16.43;13.83;;;7.00;99.90;;;;;;5000811;28;20273;-88
2021/11/20 07:28:51;;;;;;;16.33;14.40;;;7.10;99.90;;;;;;5018349;28;20213;-88
2021/11/20 07:31:17;;;;;;;17.37;15.07;;;7.20;99.90;;;;;;5002230;28;20189;-88
2021/11/20 07:33:43;;;;;;;18.10;15.77;;;7.20;99.90;;;;;;4997896;28;20305;-88
2021/11/20 07:36:11;;;;;;;18.53;15.90;;;7.10;99.90;;;;;;5003327;28;20309;-88
2021/11/20 07:38:44;;;;;;;18.37;16.23;;;7.00;99.90;;;;;;5008990;28;20248;-88
2021/11/20 07:41:10;;;;;;;18.47;14.80;;;6.90;99.90;;;;;;5004418;28;20209;-88
2021/11/20 07:43:37;;;;;;;16.83;14.93;;;6.90;99.90;;;;;;5002376;28;20219;-87
2021/11/20 07:46:05;;;;;;;16.10;14.40;;;7.00;99.90;;;;;;5019969;28;20193;-87
2021/11/20 07:48:34;;;;;;;16.93;14.00;;;7.00;99.90;;;;;;5018996;28;20272;-88
2021/11/20 07:51:00;;;;;;;15.53;13.90;;;6.90;99.90;;;;;;4994125;28;20727;-88
2021/11/20 07:53:26;;;;;;;15.50;13.83;;;6.80;99.90;;;;;;4986906;28;20193;-88
2021/11/20 07:55:53;;;;;;;17.23;13.27;;;6.70;99.90;;;;;;5011936;28;20197;-88
2021/11/20 07:58:20;;;;;;;13.87;12.37;;;6.70;99.90;;;;;;5016643;28;20218;-88
2021/11/20 08:00:48;;;;;;;12.80;11.60;;;6.80;99.90;;;;;;5010676;28;20190;-88
2021/11/20 08:03:14;;;;;;;15.57;13.87;;;6.80;99.90;;;;;;5013818;28;20224;-88
2021/11/20 08:05:41;;;;;;;14.97;13.47;;;6.80;99.90;;;;;;4999874;28;20196;-88
2021/11/20 08:08:07;;;;;;;16.07;13.93;;;6.90;99.90;;;;;;5019202;28;20267;-88
2021/11/20 08:10:35;;;;;;;15.17;13.53;;;6.90;99.90;;;;;;5022974;28;20190;-88
2021/11/20 08:13:02;;;;;;;14.40;12.90;;;6.90;99.90;;;;;;5030821;28;20182;-88
2021/11/20 08:15:32;;;;;;;14.23;11.87;;;7.10;99.90;;;;;;5022744;28;20186;-88
2021/11/20 08:17:59;;;;;;;14.23;12.93;;;7.10;99.90;;;;;;5007397;28;20338;-87
2021/11/20 08:20:29;;;;;;;14.10;12.13;;;7.10;99.90;;;;;;5004362;28;20221;-88
2021/11/20 08:22:55;;;;;;;14.77;12.40;;;7.20;99.90;;;;;;5011642;28;20200;-88
2021/11/20 08:25:23;;;;;;;16.00;13.30;;;7.30;99.90;;;;;;5018855;28;20249;-88
2021/11/20 08:27:50;;;;;;;73.53;18.63;;;7.20;99.90;;;;;;5012912;28;20182;-88
2021/11/20 08:30:18;;;;;;;38.57;14.57;;;7.20;99.90;;;;;;5002227;28;20194;-88
2021/11/20 08:32:46;;;;;;;74.20;17.23;;;7.40;99.90;;;;;;5018578;28;20201;-88
2021/11/20 08:35:13;;;;;;;22.47;18.50;;;7.50;99.90;;;;;;5021117;28;20185;-88
2021/11/20 08:37:39;;;;;;;15.00;13.27;;;7.50;99.90;;;;;;5017497;28;20203;-88
2021/11/20 08:40:09;;;;;;;31.50;28.03;;;7.50;99.90;;;;;;5014523;28;20827;-89
2021/11/20 08:42:36;;;;;;;32.90;14.80;;;7.40;99.90;;;;;;5008959;28;20216;-89
2021/11/20 08:45:06;;;;;;;18.10;15.23;;;7.40;99.90;;;;;;5015553;28;20240;-89
2021/11/20 08:47:32;;;;;;;56.10;15.97;;;7.50;99.90;;;;;;5014633;28;20221;-89
2021/11/20 08:49:58;;;;;;;33.83;15.53;;;7.40;99.90;;;;;;5011203;28;20241;-89
2021/11/20 08:52:24;;;;;;;61.73;17.90;;;7.40;99.90;;;;;;5015023;28;20193;-89
2021/11/20 08:54:56;;;;;;;59.23;17.10;;;7.30;99.90;;;;;;5013894;28;20197;-89
2021/11/20 08:57:23;;;;;;;43.87;15.40;;;7.30;99.90;;;;;;5010097;28;20194;-88
2021/11/20 08:59:49;;;;;;;15.30;12.83;;;7.30;99.90;;;;;;5013843;28;20225;-89
2021/11/20 09:02:34;;;;;;;14.60;12.83;;;7.30;99.90;;;;;;5016671;28;20211;-88
2021/11/20 09:05:20;;;;;;;13.73;12.10;;;7.20;99.90;;;;;;5001360;28;20213;-90
2021/11/20 09:08:16;;;;;;;20.00;13.07;;;7.30;99.90;;;;;;5018674;28;20197;-88
2021/11/20 09:10:44;;;;;;;14.70;12.37;;;7.50;99.90;;;;;;5011026;28;20205;-88
2021/11/20 09:13:20;;;;;;;14.20;12.63;;;7.50;99.90;;;;;;5009977;28;20214;-89
2021/11/20 09:15:55;;;;;;;16.33;14.07;;;7.60;99.90;;;;;;5007486;28;20581;-89
2021/11/20 09:18:22;;;;;;;15.80;13.13;;;7.60;99.80;;;;;;5014238;28;20858;-89
2021/11/20 09:20:52;;;;;;;15.10;13.50;;;7.60;99.40;;;;;;5005110;28;20197;-89
2021/11/20 09:23:19;;;;;;;17.47;14.90;;;7.30;99.90;;;;;;4995914;28;20205;-89
2021/11/20 09:25:46;;;;;;;16.10;14.23;;;7.10;99.90;;;;;;4994142;28;20197;-88
2021/11/20 09:28:14;;;;;;;16.10;13.63;;;7.30;99.90;;;;;;5007477;28;20206;-88
2021/11/20 09:30:44;;;;;;;16.40;14.47;;;7.40;99.90;;;;;;5013620;28;20190;-89
2021/11/20 09:33:10;;;;;;;14.47;12.87;;;7.50;99.90;;;;;;4996071;28;20356;-88
2021/11/20 09:35:37;;;;;;;16.50;13.63;;;7.50;99.90;;;;;;5009526;28;20272;-88
2021/11/20 09:38:04;;;;;;;18.03;13.43;;;7.60;99.90;;;;;;5011554;28;20201;-87
2021/11/20 09:40:32;;;;;;;14.67;13.17;;;7.60;99.90;;;;;;4999196;28;20200;-89
2021/11/20 09:43:01;;;;;;;16.10;13.23;;;7.70;99.90;;;;;;5000080;28;20201;-89
2021/11/20 09:45:34;;;;;;;15.00;13.50;;;7.80;99.50;;;;;;5010038;28;20216;-88
2021/11/20 09:48:13;;;;;;;15.47;13.53;;;7.50;99.90;;;;;;4996793;28;20197;-88
2021/11/20 09:50:54;;;;;;;15.40;13.80;;;7.50;99.90;;;;;;5015131;28;20190;-89
2021/11/20 09:53:21;;;;;;;14.60;12.63;;;7.20;99.90;;;;;;5016008;28;20178;-88
2021/11/20 09:55:53;;;;;;;17.03;13.83;;;7.20;99.90;;;;;;5015366;28;20249;-88
2021/11/20 09:58:27;;;;;;;16.43;14.10;;;7.30;99.90;;;;;;5011770;28;20228;-89
2021/11/20 10:01:20;;;;;;;17.37;14.10;;;7.50;99.90;;;;;;5017899;28;20224;-88
2021/11/20 10:04:01;;;;;;;15.53;13.87;;;7.70;99.90;;;;;;5015651;28;20860;-89
2021/11/20 10:06:29;;;;;;;18.93;17.10;;;7.50;99.90;;;;;;5019252;28;20212;-88
2021/11/20 10:09:19;;;;;;;45.57;15.87;;;7.50;99.90;;;;;;5017959;28;20206;-89
2021/11/20 10:12:17;;;;;;;15.47;13.77;;;7.60;99.90;;;;;;5020403;28;20474;-89
2021/11/20 10:14:43;;;;;;;15.23;13.07;;;7.80;99.90;;;;;;5017174;28;20229;-89
2021/11/20 10:17:34;;;;;;;17.73;15.47;;;7.80;99.10;;;;;;5007730;28;20189;-89
2021/11/20 10:20:47;;;;;;;15.90;13.73;;;7.80;99.00;;;;;;5011649;28;20206;-89
2021/11/20 10:23:35;;;;;;;14.70;13.07;;;7.70;99.60;;;;;;4974833;28;20221;-90
2021/11/20 10:26:19;;;;;;;16.10;13.90;;;7.50;99.90;;;;;;5016911;28;20201;-88
2021/11/20 10:29:12;;;;;;;13.73;12.00;;;7.50;99.90;;;;;;5018876;28;20208;-88
2021/11/20 10:31:44;;;;;;;14.23;12.70;;;7.60;99.70;;;;;;4997591;28;20188;-88
2021/11/20 10:34:27;;;;;;;14.93;13.33;;;7.70;99.70;;;;;;5019743;28;20190;-88
2021/11/20 10:37:07;;;;;;;14.60;11.67;;;7.90;99.30;;;;;;5020697;28;20183;-87
2021/11/20 10:39:33;;;;;;;13.33;12.03;;;8.00;98.90;;;;;;5017347;28;20221;-87
2021/11/20 10:41:59;;;;;;;19.43;12.77;;;8.00;97.90;;;;;;5017963;28;20197;-87
2021/11/20 10:44:36;;;;;;;15.23;12.93;;;8.00;98.50;;;;;;4999349;28;20290;-87
2021/11/20 10:47:02;;;;;;;16.03;12.83;;;8.00;97.50;;;;;;5018539;28;20189;-87
2021/11/20 10:49:31;;;;;;;14.57;13.00;;;8.20;98.10;;;;;;4996817;28;20221;-87
2021/11/20 10:52:15;;;;;;;14.23;12.73;;;8.30;97.40;;;;;;5018813;28;20193;-87
2021/11/20 10:55:09;;;;;;;12.97;11.60;;;8.40;97.00;;;;;;5016960;28;20193;-87
2021/11/20 10:57:51;;;;;;;15.50;13.80;;;8.50;96.20;;;;;;4995027;28;20264;-87
2021/11/20 11:00:20;;;;;;;17.27;14.27;;;8.30;96.90;;;;;;5010263;28;20224;-87
2021/11/20 11:03:16;;;;;;;16.83;15.13;;;8.00;98.80;;;;;;5011297;28;20450;-87
2021/11/20 11:06:14;;;;;;;15.23;12.53;;;8.10;98.40;;;;;;5015293;28;20212;-87
2021/11/20 11:08:42;;;;;;;14.63;13.13;;;8.40;96.80;;;;;;4997221;28;20219;-87
2021/11/20 11:11:38;;;;;;;14.43;12.97;;;8.40;96.30;;;;;;5013152;28;20193;-88
2021/11/20 11:14:04;;;;;;;14.83;13.33;;;8.40;96.80;;;;;;5014838;28;20610;-87
2021/11/20 11:16:44;;;;;;;14.03;12.40;;;8.50;96.40;;;;;;5009614;28;20228;-87
2021/11/20 11:19:42;;;;;;;13.03;11.73;;;8.50;96.10;;;;;;5017505;28;20217;-87
2021/11/20 11:22:37;;;;;;;15.60;12.67;;;8.40;96.10;;;;;;5008233;28;20261;-87
2021/11/20 11:25:10;;;;;;;13.87;12.47;;;8.40;97.30;;;;;;5004029;28;20213;-85
2021/11/20 11:27:49;;;;;;;14.67;13.23;;;8.60;95.60;;;;;;5013888;28;20582;-86
2021/11/20 11:30:32;;;;;;;14.27;12.77;;;8.40;96.80;;;;;;5010367;28;20185;-86
2021/11/20 11:32:59;;;;;;;12.93;11.67;;;8.20;97.20;;;;;;5015135;28;20302;-86
2021/11/20 11:35:54;;;;;;;14.27;12.77;;;8.40;97.30;;;;;;5014326;28;20202;-87
2021/11/20 11:38:35;;;;;;;13.97;12.60;;;8.70;95.90;;;;;;5021498;28;20247;-86
2021/11/20 11:41:19;;;;;;;14.77;12.57;;;8.40;97.10;;;;;;5018704;28;20264;-85
2021/11/20 11:44:24;;;;;;;14.50;12.17;;;8.50;97.60;;;;;;5001961;28;20209;-86
2021/11/20 11:46:58;;;;;;;12.87;10.83;;;8.60;97.00;;;;;;5000231;28;20198;-87
2021/11/20 11:49:27;;;;;;;11.17;10.07;;;8.80;96.00;;;;;;5002520;28;20642;-87
2021/11/20 11:52:18;;;;;;;10.53;9.50;;;8.90;95.30;;;;;;5002813;28;20182;-86
2021/11/20 11:54:48;;;;;;;11.87;10.67;;;9.00;93.70;;;;;;5013341;28;20696;-87
2021/11/20 11:57:14;;;;;;;10.87;9.60;;;9.10;94.10;;;;;;5012712;28;20190;-86
2021/11/20 11:59:42;;;;;;;10.47;9.37;;;9.30;93.80;;;;;;5017949;28;20221;-86
2021/11/20 12:02:44;;;;;;;11.63;10.43;;;8.90;93.30;;;;;;5020430;28;20224;-86
2021/11/20 12:05:34;;;;;;;10.67;9.57;;;8.60;95.30;;;;;;5014847;28;20232;-89
2021/11/20 12:08:35;;;;;;;11.10;9.50;;;8.60;96.20;;;;;;5007406;28;20209;-87
2021/11/20 12:11:12;;;;;;;10.20;9.20;;;8.80;96.10;;;;;;5018051;28;20293;-87
2021/11/20 12:14:13;;;;;;;12.20;10.93;;;9.20;93.80;;;;;;5011371;28;20729;-85
2021/11/20 12:16:44;;;;;;;13.27;10.77;;;8.90;95.10;;;;;;5000779;28;20207;-88
2021/11/20 12:19:27;;;;;;;12.23;10.13;;;8.70;95.90;;;;;;5006935;28;20213;-86
2021/11/20 12:22:21;;;;;;;11.37;9.93;;;8.60;96.50;;;;;;5009512;28;20217;-88
2021/11/20 12:25:12;;;;;;;8.93;8.07;;;9.00;94.70;;;;;;4994644;28;20221;-89
2021/11/20 12:27:47;;;;;;;9.93;8.93;;;9.20;93.60;;;;;;4995952;28;20209;-88
2021/11/20 12:30:27;;;;;;;9.97;9.07;;;9.40;92.00;;;;;;5001794;28;20268;-89
2021/11/20 12:33:01;;;;;;;10.60;9.43;;;9.40;92.30;;;;;;4993925;28;20193;-87
2021/11/20 12:35:49;;;;;;;9.73;8.70;;;9.40;92.50;;;;;;5010241;28;20213;-89
2021/11/20 12:38:45;;;;;;;10.30;9.33;;;9.40;92.10;;;;;;4994100;28;20209;-88
2021/11/20 12:41:26;;;;;;;9.67;8.87;;;9.70;91.70;;;;;;5011136;28;20187;-86
2021/11/20 12:44:09;;;;;;;12.87;9.00;;;9.70;90.90;;;;;;5021766;28;20214;-84
2021/11/20 12:46:44;;;;;;;10.63;8.60;;;9.80;90.10;;;;;;5019614;28;20214;-84
2021/11/20 12:49:13;;;;;;;10.80;9.73;;;9.70;90.20;;;;;;5011568;28;20210;-87
2021/11/20 12:52:20;;;;;;;10.30;9.30;;;9.60;90.50;;;;;;5000534;28;20220;-88
2021/11/20 12:54:53;;;;;;;9.37;8.43;;;9.30;92.00;;;;;;4997211;28;20206;-89
2021/11/20 12:57:40;;;;;;;10.57;9.47;;;9.50;91.40;;;;;;4990517;28;20202;-88
2021/11/20 13:00:08;;;;;;;9.80;8.80;;;9.70;90.20;;;;;;5007913;28;20213;-88
2021/11/20 13:03:01;;;;;;;10.30;9.20;;;9.50;91.40;;;;;;5006494;28;20193;-88
2021/11/20 13:05:39;;;;;;;9.90;9.00;;;9.70;91.60;;;;;;5001913;28;20203;-87